createdAt,value
2019-02-07T00:01:21.448Z,100852.89
2019-02-07T00:03:50.765Z,100852.48
2019-02-07T00:06:20.072Z,100849.44
2019-02-07T00:08:49.321Z,100844.19
2019-02-07T00:11:18.563Z,100839.38
2019-02-07T00:13:48.044Z,100836.75
2019-02-07T00:16:17.295Z,100829.73
2019-02-07T00:18:46.529Z,100836.75
2019-02-07T00:21:15.772Z,100831.05
2019-02-07T00:23:45.027Z,100823.12
2019-02-07T00:26:14.299Z,100823.03
2019-02-07T00:28:43.548Z,100815.97
2019-02-07T00:31:12.865Z,100809.77
2019-02-07T00:33:42.071Z,100811.48
2019-02-07T00:36:11.298Z,100810.67
2019-02-07T00:38:40.570Z,100805.41
2019-02-07T00:41:09.796Z,100803.61
2019-02-07T00:43:39.105Z,100799.21
2019-02-07T00:46:08.339Z,100792.27
2019-02-07T00:48:38.194Z,100795.81
2019-02-07T00:51:07.468Z,100789.73
2019-02-07T00:53:37.862Z,100783.62
2019-02-07T00:56:07.154Z,100788.42
2019-02-07T00:58:36.427Z,100774.79
2019-02-07T01:01:05.933Z,100769.12
2019-02-07T01:03:35.209Z,100768.13
2019-02-07T01:06:04.707Z,100759.67
2019-02-07T01:08:33.962Z,100757.28
2019-02-07T01:11:04.146Z,100757.98
2019-02-07T01:13:33.454Z,100758.13
2019-02-07T01:16:03.089Z,100754.38
2019-02-07T01:18:32.299Z,100744.03
2019-02-07T01:21:01.498Z,100748.61
2019-02-07T01:23:30.749Z,100742.81
2019-02-07T01:25:59.995Z,100741.38
2019-02-07T01:28:29.200Z,100736.53
2019-02-07T01:30:58.837Z,100742.81
2019-02-07T01:33:28.087Z,100733.71
2019-02-07T01:35:57.318Z,100727.77
2019-02-07T01:38:26.531Z,100729.98
2019-02-07T01:40:55.842Z,100721.71
2019-02-07T01:43:25.072Z,100720.97
2019-02-07T01:45:54.587Z,100718.02
2019-02-07T01:48:23.796Z,100708.46
2019-02-07T01:50:53.082Z,100712.45
2019-02-07T01:53:22.298Z,100702.42
2019-02-07T01:55:51.579Z,100700.75
2019-02-07T01:58:20.781Z,100697.27
2019-02-07T02:00:50.014Z,100703.83
2019-02-07T02:03:19.254Z,100692.02
2019-02-07T02:05:48.746Z,100690.70
2019-02-07T02:08:17.947Z,100684.98
2019-02-07T02:10:47.205Z,100689.38
2019-02-07T02:13:16.452Z,100689.38
2019-02-07T02:15:45.757Z,100674.48
2019-02-07T02:18:14.963Z,100660.03
2019-02-07T02:20:44.274Z,100664.05
2019-02-07T02:23:13.478Z,100657.61
2019-02-07T02:25:42.725Z,100651.95
2019-02-07T02:28:11.946Z,100651.98
2019-02-07T02:30:41.152Z,100644.48
2019-02-07T02:33:10.418Z,100637.80
2019-02-07T02:35:39.663Z,100635.83
2019-02-07T02:38:08.868Z,100632.50
2019-02-07T02:40:38.123Z,100626.63
2019-02-07T02:43:07.328Z,100625.20
2019-02-07T02:45:37.881Z,100612.44
2019-02-07T02:48:07.367Z,100609.41
2019-02-07T02:50:36.607Z,100615.52
2019-02-07T02:53:05.836Z,100606.81
2019-02-07T02:55:39.842Z,100584.66
2019-02-07T02:58:09.083Z,100583.05
2019-02-07T03:00:40.454Z,100578.66
2019-02-07T03:03:27.513Z,100573.91
2019-02-07T03:06:00.807Z,100566.67
2019-02-07T03:08:37.682Z,100569.41
2019-02-07T03:11:08.587Z,100569.13
2019-02-07T03:13:55.943Z,100557.45
2019-02-07T03:16:38.756Z,100558.39
2019-02-07T03:19:09.643Z,100552.73
2019-02-07T03:21:55.470Z,100543.53
2019-02-07T03:24:42.674Z,100539.18
2019-02-07T03:27:28.804Z,100527.81
2019-02-07T03:29:59.675Z,100530.02
2019-02-07T03:32:42.828Z,100519.97
2019-02-07T03:35:30.368Z,100515.69
2019-02-07T03:38:01.208Z,100521.02
2019-02-07T03:40:48.343Z,100511.92
2019-02-07T03:43:35.571Z,100500.52
2019-02-07T03:46:06.630Z,100503.22
2019-02-07T03:48:43.400Z,100486.20
2019-02-07T03:51:23.558Z,100492.02
2019-02-07T03:53:54.449Z,100481.92
2019-02-07T03:56:28.244Z,100472.31
2019-02-07T03:59:17.221Z,100471.93
2019-02-07T04:01:50.841Z,100467.50
2019-02-07T04:04:21.695Z,100481.06
2019-02-07T04:07:08.996Z,100474.83
2019-02-07T04:09:56.042Z,100470.81
2019-02-07T04:12:43.153Z,100473.75
2019-02-07T04:15:16.991Z,100459.61
2019-02-07T04:18:05.923Z,100462.17
2019-02-07T04:20:39.436Z,100458.16
2019-02-07T04:23:10.337Z,100452.83
2019-02-07T04:25:57.047Z,100437.93
2019-02-07T04:28:44.288Z,100432.37
2019-02-07T04:31:30.180Z,100445.98
2019-02-07T04:34:01.021Z,100457.44
2019-02-07T04:36:31.923Z,100455.73
2019-02-07T04:39:19.182Z,100445.20
2019-02-07T04:42:06.334Z,100456.64
2019-02-07T04:44:39.889Z,100457.50
2019-02-07T04:47:10.933Z,100457.09
2019-02-07T04:49:45.694Z,100443.53
2019-02-07T04:52:33.273Z,100437.80
2019-02-07T04:55:07.025Z,100432.12
2019-02-07T04:57:50.130Z,100428.22
2019-02-07T05:00:26.683Z,100420.45
2019-02-07T05:03:00.184Z,100409.52
2019-02-07T05:05:37.102Z,100408.62
2019-02-07T05:08:13.625Z,100406.41
2019-02-07T05:10:47.396Z,100414.70
2019-02-07T05:13:30.363Z,100401.88
2019-02-07T05:16:04.222Z,100387.81
2019-02-07T05:18:38.285Z,100375.22
2019-02-07T05:21:11.859Z,100377.22
2019-02-07T05:23:51.944Z,100380.50
2019-02-07T05:26:23.312Z,100376.84
2019-02-07T05:28:54.154Z,100370.89
2019-02-07T05:31:25.023Z,100374.54
2019-02-07T05:34:01.836Z,100369.53
2019-02-07T05:36:47.743Z,100356.95
2019-02-07T05:39:21.459Z,100347.39
2019-02-07T05:41:58.048Z,100332.09
2019-02-07T05:44:44.041Z,100324.20
2019-02-07T05:47:17.495Z,100338.21
2019-02-07T05:50:03.416Z,100337.80
2019-02-07T05:52:40.065Z,100345.66
2019-02-07T05:55:14.161Z,100343.44
2019-02-07T05:57:45.167Z,100347.33
2019-02-07T06:00:16.022Z,100348.59
2019-02-07T06:02:46.875Z,100331.22
2019-02-07T06:05:34.121Z,100324.70
2019-02-07T06:10:45.084Z,100326.68
2019-02-07T06:13:32.563Z,100311.30
2019-02-07T06:16:06.119Z,100314.41
2019-02-07T06:18:36.954Z,100311.40
2019-02-07T06:21:13.616Z,100296.50
2019-02-07T06:24:00.728Z,100284.23
2019-02-07T06:26:31.616Z,100282.88
2019-02-07T06:29:18.621Z,100286.28
2019-02-07T06:31:52.171Z,100285.80
2019-02-07T06:34:41.282Z,100274.81
2019-02-07T06:37:14.742Z,100265.55
2019-02-07T06:39:57.862Z,100267.66
2019-02-07T06:42:44.875Z,100263.21
2019-02-07T06:45:15.748Z,100264.88
2019-02-07T06:47:52.536Z,100259.42
2019-02-07T06:50:39.570Z,100261.41
2019-02-07T06:53:13.378Z,100252.95
2019-02-07T06:55:49.817Z,100233.36
2019-02-07T06:58:35.885Z,100227.75
2019-02-07T07:01:12.860Z,100223.49
2019-02-07T07:03:49.712Z,100214.37
2019-02-07T07:06:27.945Z,100218.34
2019-02-07T07:08:58.834Z,100217.53
2019-02-07T07:11:29.721Z,100213.75
2019-02-07T07:14:03.307Z,100215.55
2019-02-07T07:16:34.129Z,100210.41
2019-02-07T07:19:08.353Z,100215.38
2019-02-07T07:21:39.240Z,100208.86
2019-02-07T07:24:10.249Z,100204.66
2019-02-07T07:26:57.096Z,100196.00
2019-02-07T07:29:44.523Z,100198.30
2019-02-07T07:32:31.749Z,100190.08
2019-02-07T07:35:20.866Z,100178.84
2019-02-07T07:38:06.768Z,100178.89
2019-02-07T07:40:40.976Z,100173.24
2019-02-07T07:43:30.421Z,100170.25
2019-02-07T07:46:01.031Z,100169.05
2019-02-07T07:48:31.856Z,100181.05
2019-02-07T07:51:20.964Z,100170.18
2019-02-07T07:53:51.872Z,100155.95
2019-02-07T07:56:40.599Z,100153.82
2019-02-07T07:59:27.461Z,100149.41
2019-02-07T08:02:10.602Z,100133.97
2019-02-07T08:04:44.194Z,100126.31
2019-02-07T08:07:20.887Z,100125.66
2019-02-07T08:09:54.929Z,100120.46
2019-02-07T08:12:38.054Z,100129.82
2019-02-07T08:15:15.345Z,100128.13
2019-02-07T08:17:47.721Z,100125.13
2019-02-07T08:20:18.755Z,100123.92
2019-02-07T08:23:07.919Z,100124.45
2019-02-07T08:25:38.870Z,100114.02
2019-02-07T08:28:13.018Z,100119.80
2019-02-07T08:30:43.831Z,100115.89
2019-02-07T08:33:20.711Z,100125.17
2019-02-07T08:35:57.283Z,100114.97
2019-02-07T08:38:33.886Z,100117.61
2019-02-07T08:41:08.464Z,100110.59
2019-02-07T08:43:39.358Z,100112.83
2019-02-07T08:46:12.981Z,100114.64
2019-02-07T08:48:52.876Z,100117.32
2019-02-07T08:51:23.762Z,100109.42
2019-02-07T08:54:00.596Z,100116.87
2019-02-07T08:56:37.215Z,100118.19
2019-02-07T08:59:20.533Z,100105.06
2019-02-07T09:01:57.560Z,100111.64
2019-02-07T09:04:37.625Z,100112.53
2019-02-07T09:07:08.642Z,100099.26
2019-02-07T09:09:42.492Z,100106.20
2019-02-07T09:12:22.150Z,100097.38
2019-02-07T09:14:55.717Z,100094.64
2019-02-07T09:17:41.867Z,100093.73
2019-02-07T09:20:19.300Z,100087.13
2019-02-07T09:23:02.486Z,100099.02
2019-02-07T09:28:31.883Z,100106.20
2019-02-07T09:31:05.686Z,100102.23
2019-02-07T09:33:52.697Z,100096.51
2019-02-07T09:36:26.803Z,100087.34
2019-02-07T09:39:14.324Z,100085.25
2019-02-07T09:41:50.889Z,100078.70
2019-02-07T09:44:38.001Z,100084.06
2019-02-07T09:47:14.629Z,100091.23
2019-02-07T09:50:01.685Z,100082.60
2019-02-07T09:52:49.020Z,100079.66
2019-02-07T09:55:31.917Z,100070.11
2019-02-07T09:58:11.760Z,100042.88
2019-02-07T10:00:58.862Z,100064.94
2019-02-07T10:03:32.701Z,100062.30
2019-02-07T10:06:06.456Z,100069.63
2019-02-07T10:08:43.380Z,100070.42
2019-02-07T10:11:14.294Z,100072.56
2019-02-07T10:13:50.859Z,100081.30
2019-02-07T10:16:30.897Z,100080.38
2019-02-07T10:19:18.371Z,100074.63
2019-02-07T10:22:01.207Z,100061.93
2019-02-07T10:24:50.118Z,100061.55
2019-02-07T10:27:29.854Z,100060.82
2019-02-07T10:30:00.775Z,100069.61
2019-02-07T10:32:34.379Z,100074.41
2019-02-07T10:35:10.646Z,100074.39
2019-02-07T10:37:44.223Z,100074.47
2019-02-07T10:40:25.819Z,100085.97
2019-02-07T10:42:56.664Z,100080.83
2019-02-07T10:45:36.924Z,100066.24
2019-02-07T10:48:10.529Z,100059.91
2019-02-07T10:50:57.537Z,100043.78
2019-02-07T10:53:28.747Z,100053.58
2019-02-07T10:56:15.880Z,100060.78
2019-02-07T10:58:49.712Z,100059.66
2019-02-07T11:01:35.836Z,100051.13
2019-02-07T11:04:13.099Z,100046.17
2019-02-07T11:06:52.897Z,100032.17
2019-02-07T11:09:26.509Z,100030.55
2019-02-07T11:12:09.633Z,100037.12
2019-02-07T11:14:56.661Z,100032.62
2019-02-07T11:17:36.580Z,100036.00
2019-02-07T11:20:16.390Z,100015.98
2019-02-07T11:22:53.243Z,100024.05
2019-02-07T11:25:29.809Z,100009.67
2019-02-07T11:28:10.205Z,100003.69
2019-02-07T11:30:50.742Z,100017.78
2019-02-07T11:33:21.615Z,100016.35
2019-02-07T11:36:09.071Z,100012.93
2019-02-07T11:38:39.924Z,100019.13
2019-02-07T11:41:26.124Z,100003.00
2019-02-07T11:43:58.104Z,99997.44
2019-02-07T11:46:45.499Z,99993.39
2019-02-07T11:49:22.113Z,99995.09
2019-02-07T11:51:59.234Z,99997.26
2019-02-07T11:54:30.080Z,99996.92
2019-02-07T11:57:12.708Z,100003.52
2019-02-07T12:00:00.198Z,100004.73
2019-02-07T12:02:31.103Z,99999.73
2019-02-07T12:05:04.947Z,100003.52
2019-02-07T12:07:35.856Z,100002.20
2019-02-07T12:10:12.897Z,100011.80
2019-02-07T12:12:43.760Z,100005.71
2019-02-07T12:15:17.866Z,100005.81
2019-02-07T12:17:54.970Z,99995.42
2019-02-07T12:20:25.842Z,100000.77
2019-02-07T12:23:02.413Z,100000.84
2019-02-07T12:25:49.388Z,100001.76
2019-02-07T12:28:38.299Z,100002.63
2019-02-07T12:31:25.083Z,100005.27
2019-02-07T12:33:56.317Z,100004.31
2019-02-07T12:36:27.175Z,100017.78
2019-02-07T12:39:06.746Z,100015.97
2019-02-07T12:41:38.586Z,99999.63
2019-02-07T12:44:14.996Z,99999.52
2019-02-07T12:46:54.983Z,99993.37
2019-02-07T12:49:29.293Z,99992.66
2019-02-07T12:52:01.602Z,99983.35
2019-02-07T12:54:38.693Z,99977.25
2019-02-07T12:57:26.481Z,99976.13
2019-02-07T13:00:13.649Z,99969.64
2019-02-07T13:02:56.727Z,99978.97
2019-02-07T13:05:39.673Z,99961.34
2019-02-07T13:08:26.781Z,99980.59
2019-02-07T13:11:03.445Z,99968.28
2019-02-07T13:13:34.384Z,99963.45
2019-02-07T13:16:11.929Z,99960.83
2019-02-07T13:18:45.484Z,99954.30
2019-02-07T13:21:16.353Z,99950.34
2019-02-07T13:23:53.207Z,99967.58
2019-02-07T13:26:32.996Z,99951.80
2019-02-07T13:29:09.281Z,99958.06
2019-02-07T13:31:40.484Z,99958.09
2019-02-07T13:34:14.115Z,99964.48
2019-02-07T13:36:51.048Z,99966.97
2019-02-07T13:39:27.720Z,99966.88
2019-02-07T13:42:08.061Z,99960.31
2019-02-07T13:44:38.943Z,99977.94
2019-02-07T13:47:09.781Z,99977.56
2019-02-07T13:49:51.613Z,99979.06
2019-02-07T13:52:32.626Z,99976.95
2019-02-07T13:55:05.886Z,99981.42
2019-02-07T13:57:48.900Z,99972.61
2019-02-07T14:00:20.016Z,99980.48
2019-02-07T14:02:51.021Z,99975.22
2019-02-07T14:05:38.599Z,99992.77
2019-02-07T14:08:14.814Z,99985.67
2019-02-07T14:10:45.692Z,99992.11
2019-02-07T14:13:25.282Z,99989.14
2019-02-07T14:15:56.185Z,99996.35
2019-02-07T14:18:35.839Z,99994.42
2019-02-07T14:21:06.688Z,100006.22
2019-02-07T14:23:37.584Z,99997.81
2019-02-07T14:26:24.927Z,99996.52
2019-02-07T14:29:08.194Z,100004.80
2019-02-07T14:31:39.041Z,99995.87
2019-02-07T14:34:11.447Z,100013.20
2019-02-07T14:36:54.469Z,100007.41
2019-02-07T14:39:41.535Z,99997.28
2019-02-07T14:42:15.052Z,100013.97
2019-02-07T14:44:45.939Z,100019.29
2019-02-07T14:47:15.198Z,100026.85
2019-02-07T14:49:44.445Z,100025.06
2019-02-07T14:52:14.120Z,100025.45
2019-02-07T14:54:43.361Z,100035.80
2019-02-07T14:57:12.559Z,100036.95
2019-02-07T14:59:42.127Z,100039.05
2019-02-07T15:02:11.471Z,100039.01
2019-02-07T15:04:40.719Z,100038.33
2019-02-07T15:07:10.058Z,100047.36
2019-02-07T15:09:39.267Z,100040.52
2019-02-07T15:12:08.497Z,100056.66
2019-02-07T15:14:37.765Z,100059.19
2019-02-07T15:17:07.009Z,100053.41
2019-02-07T15:19:36.288Z,100048.02
2019-02-07T15:22:05.544Z,100054.03
2019-02-07T15:24:34.797Z,100048.70
2019-02-07T15:27:04.223Z,100054.33
2019-02-07T15:29:33.490Z,100052.52
2019-02-07T15:32:02.688Z,100049.83
2019-02-07T15:34:31.983Z,100052.41
2019-02-07T15:37:01.228Z,100057.05
2019-02-07T15:39:30.424Z,100056.55
2019-02-07T15:41:59.620Z,100061.85
2019-02-07T15:44:28.862Z,100055.23
2019-02-07T15:46:58.115Z,100052.07
2019-02-07T15:49:27.643Z,100052.86
2019-02-07T15:51:57.065Z,100059.34
2019-02-07T15:54:26.399Z,100062.77
2019-02-07T15:56:55.612Z,100060.92
2019-02-07T15:59:26.618Z,100052.95
2019-02-07T16:01:57.461Z,100054.25
2019-02-07T16:04:27.758Z,100055.55
2019-02-07T16:06:56.942Z,100065.13
2019-02-07T16:09:26.176Z,100065.04
2019-02-07T16:11:55.684Z,100063.67
2019-02-07T16:14:24.879Z,100072.27
2019-02-07T16:19:52.539Z,100082.25
2019-02-07T16:22:21.776Z,100082.89
2019-02-07T16:24:51.041Z,100087.17
2019-02-07T16:27:21.295Z,100096.51
2019-02-07T16:29:50.572Z,100098.32
2019-02-07T16:32:19.925Z,100105.53
2019-02-07T16:34:49.210Z,100106.17
2019-02-07T16:37:18.485Z,100102.91
2019-02-07T16:39:50.816Z,100107.60
2019-02-07T16:42:20.076Z,100110.59
2019-02-07T16:44:49.622Z,100114.50
2019-02-07T16:47:22.983Z,100117.45
2019-02-07T16:49:52.543Z,100109.94
2019-02-07T16:52:21.875Z,100114.18
2019-02-07T16:54:51.341Z,100107.61
2019-02-07T16:57:20.557Z,100110.19
2019-02-07T16:59:49.798Z,100110.19
2019-02-07T17:02:19.198Z,100109.80
2019-02-07T17:04:48.423Z,100109.73
2019-02-07T17:07:17.712Z,100107.08
2019-02-07T17:09:47.114Z,100096.58
2019-02-07T17:12:16.657Z,100098.34
2019-02-07T17:14:46.290Z,100109.28
2019-02-07T17:17:15.515Z,100113.64
2019-02-07T17:19:44.920Z,100110.57
2019-02-07T17:22:14.171Z,100108.84
2019-02-07T17:24:43.671Z,100119.34
2019-02-07T17:27:12.965Z,100124.92
2019-02-07T17:29:42.179Z,100117.05
2019-02-07T17:32:11.641Z,100120.09
2019-02-07T17:34:40.974Z,100113.02
2019-02-07T17:37:10.569Z,100115.58
2019-02-07T17:39:39.825Z,100120.80
2019-02-07T17:42:09.167Z,100117.70
2019-02-07T17:44:38.388Z,100119.37
2019-02-07T17:47:10.310Z,100120.71
2019-02-07T17:49:38.761Z,100127.66
2019-02-07T17:52:08.098Z,100127.66
2019-02-07T17:54:37.305Z,100139.06
2019-02-07T17:57:07.215Z,100138.64
2019-02-07T17:59:36.857Z,100139.57
2019-02-07T18:02:07.821Z,100146.13
2019-02-07T18:04:37.216Z,100139.47
2019-02-07T18:07:06.715Z,100151.26
2019-02-07T18:09:35.906Z,100149.02
2019-02-07T18:12:05.176Z,100159.55
2019-02-07T18:14:34.380Z,100169.77
2019-02-07T18:17:04.410Z,100168.36
2019-02-07T18:19:33.755Z,100171.91
2019-02-07T18:22:03.002Z,100160.09
2019-02-07T18:24:32.356Z,100164.58
2019-02-07T18:27:01.569Z,100176.80
2019-02-07T18:29:31.142Z,100159.33
2019-02-07T18:32:00.817Z,100177.64
2019-02-07T18:34:30.022Z,100177.16
2019-02-07T18:36:59.272Z,100185.03
2019-02-07T18:39:30.784Z,100179.41
2019-02-07T18:41:59.452Z,100179.75
2019-02-07T18:44:28.703Z,100182.89
2019-02-07T18:46:58.068Z,100171.81
2019-02-07T18:49:27.267Z,100179.23
2019-02-07T18:52:01.702Z,100180.42
2019-02-07T18:54:31.378Z,100187.30
2019-02-07T18:57:00.640Z,100182.79
2019-02-07T18:59:29.895Z,100187.11
2019-02-07T19:01:59.273Z,100166.52
2019-02-07T19:04:28.482Z,100164.70
2019-02-07T19:06:57.728Z,100177.69
2019-02-07T19:09:26.928Z,100174.58
2019-02-07T19:11:56.573Z,100174.09
2019-02-07T19:14:25.828Z,100171.89
2019-02-07T19:16:55.147Z,100175.38
2019-02-07T19:19:24.340Z,100171.48
2019-02-07T19:21:57.229Z,100171.89
2019-02-07T19:24:24.567Z,100180.24
2019-02-07T19:26:54.754Z,100177.52
2019-02-07T19:29:24.087Z,100180.34
2019-02-07T19:31:53.356Z,100184.70
2019-02-07T19:34:22.606Z,100182.66
2019-02-07T19:36:51.859Z,100183.07
2019-02-07T19:39:21.232Z,100181.48
2019-02-07T19:41:50.628Z,100186.73
2019-02-07T19:44:19.877Z,100180.61
2019-02-07T19:46:49.147Z,100184.55
2019-02-07T19:49:18.353Z,100175.39
2019-02-07T19:51:47.781Z,100184.20
2019-02-07T19:54:16.991Z,100185.52
2019-02-07T19:56:47.323Z,100179.49
2019-02-07T19:59:17.600Z,100180.81
2019-02-07T20:01:47.415Z,100191.75
2019-02-07T20:04:16.626Z,100176.01
2019-02-07T20:06:45.825Z,100180.88
2019-02-07T20:09:15.082Z,100186.53
2019-02-07T20:11:44.563Z,100179.97
2019-02-07T20:14:13.813Z,100186.50
2019-02-07T20:16:43.669Z,100190.38
2019-02-07T20:19:12.907Z,100195.21
2019-02-07T20:21:42.229Z,100194.83
2019-02-07T20:24:12.006Z,100192.04
2019-02-07T20:26:41.733Z,100199.05
2019-02-07T20:29:11.208Z,100197.80
2019-02-07T20:31:40.461Z,100191.24
2019-02-07T20:34:09.706Z,100196.94
2019-02-07T20:36:38.910Z,100193.87
2019-02-07T20:39:08.304Z,100203.05
2019-02-07T20:41:37.500Z,100202.25
2019-02-07T20:44:06.745Z,100201.88
2019-02-07T20:46:35.944Z,100208.95
2019-02-07T20:49:05.188Z,100209.91
2019-02-07T20:51:34.400Z,100209.05
2019-02-07T20:54:04.251Z,100208.60
2019-02-07T20:56:33.562Z,100207.22
2019-02-07T20:59:02.860Z,100205.95
2019-02-07T21:01:32.544Z,100217.30
2019-02-07T21:04:02.334Z,100215.55
2019-02-07T21:06:31.515Z,100214.65
2019-02-07T21:09:00.937Z,100218.59
2019-02-07T21:11:31.759Z,100219.03
2019-02-07T21:14:01.019Z,100225.12
2019-02-07T21:16:30.239Z,100232.16
2019-02-07T21:18:59.521Z,100238.66
2019-02-07T21:21:28.811Z,100232.99
2019-02-07T21:23:58.363Z,100234.79
2019-02-07T21:26:27.861Z,100243.11
2019-02-07T21:28:57.114Z,100238.66
2019-02-07T21:31:27.294Z,100246.60
2019-02-07T21:33:56.997Z,100257.10
2019-02-07T21:36:26.251Z,100257.94
2019-02-07T21:38:55.492Z,100259.24
2019-02-07T21:41:24.768Z,100264.19
2019-02-07T21:43:53.978Z,100264.66
2019-02-07T21:46:23.929Z,100263.77
2019-02-07T21:48:54.042Z,100261.20
2019-02-07T21:51:23.488Z,100275.17
2019-02-07T21:53:52.748Z,100279.00
2019-02-07T21:56:22.141Z,100275.55
2019-02-07T21:58:51.994Z,100291.30
2019-02-07T22:01:21.391Z,100297.86
2019-02-07T22:03:50.642Z,100298.77
2019-02-07T22:06:21.131Z,100296.55
2019-02-07T22:08:50.634Z,100296.06
2019-02-07T22:11:19.846Z,100301.73
2019-02-07T22:13:49.124Z,100303.80
2019-02-07T22:16:18.329Z,100306.39
2019-02-07T22:18:47.637Z,100302.88
2019-02-07T22:21:17.022Z,100304.63
2019-02-07T22:23:46.330Z,100302.80
2019-02-07T22:26:15.541Z,100299.62
2019-02-07T22:28:44.789Z,100290.40
2019-02-07T22:31:14.035Z,100301.23
2019-02-07T22:33:43.686Z,100295.13
2019-02-07T22:36:13.301Z,100302.06
2019-02-07T22:38:42.544Z,100287.98
2019-02-07T22:41:11.753Z,100294.09
2019-02-07T22:43:40.996Z,100287.91
2019-02-07T22:46:10.199Z,100296.19
2019-02-07T22:48:39.493Z,100300.50
2019-02-07T22:51:08.900Z,100297.47
2019-02-07T22:53:38.142Z,100302.27
2019-02-07T22:56:07.568Z,100297.44
2019-02-07T22:58:36.856Z,100291.66
2019-02-07T23:01:12.000Z,100295.11
2019-02-07T23:03:41.311Z,100305.64
2019-02-07T23:06:10.705Z,100310.97
2019-02-07T23:08:39.912Z,100303.58
2019-02-07T23:11:09.288Z,100310.97
2019-02-07T23:13:38.538Z,100317.91
2019-02-07T23:16:08.413Z,100320.08
2019-02-07T23:18:37.722Z,100330.65
2019-02-07T23:21:07.099Z,100331.13
2019-02-07T23:23:36.644Z,100327.58
2019-02-07T23:26:05.952Z,100335.00
2019-02-07T23:28:35.198Z,100342.00
2019-02-07T23:31:05.578Z,100339.27
2019-02-07T23:33:34.846Z,100335.78
2019-02-07T23:36:04.525Z,100342.37
2019-02-07T23:38:33.751Z,100352.87
2019-02-07T23:41:02.987Z,100362.44
2019-02-07T23:43:32.195Z,100367.69
2019-02-07T23:46:01.442Z,100370.76
2019-02-07T23:48:30.647Z,100365.06
2019-02-07T23:51:00.304Z,100366.00
2019-02-07T23:53:29.554Z,100371.70
2019-02-07T23:55:58.868Z,100363.78
2019-02-07T23:58:28.069Z,100376.01
